Altamont, UT

10:20 AM MDT on July 31, 2014 (GMT -0600)
Carbon County (KPUC) Elev 5955 ft | 39.61 °N, 110.75 °W | Change Station

Current weather conditions updated 27 minutes ago

Clear
Clear
74 °F
Feels Like 74 °F
N
14
Wind Variable Wind from NNE

Today is forecast to be Much Cooler than yesterday. Scattered thunderstorms.

Today
High -- | Low -- °F
--% Chance of Precip.
Yesterday
High -- | Low -- °F
Precip. -- in
6:18 AM 8:37 PM
Waxing Crescent, 19% visible
Pressure 30.03 in
Visibility 10.0 miles
Clouds Clear
Dew Point 44 °F
Humidity 34%
Rainfall 0.00 in
Snow Depth 1 in
UV 5 out of 12
Pollen 6.50 out of 12
Air Quality Not available.
Flu Activity Not available.
METAR KPUC 311553Z AUTO 03012KT 10SM CLR 23/07 A3027 RMK AO2 SLP167 T02330067

More Conditions Fewer Conditions

Pressure 30.03 in
Visibility 10.0 miles
Clouds Clear
Dew Point 44 °F
Humidity 34%
Rainfall 0.00 in
Snow Depth 1 in
UV 5 out of 12
Pollen 6.50 out of 12
Air Quality Not available.
Flu Activity Not available.
METAR KPUC 311553Z AUTO 03012KT 10SM CLR 23/07 A3027 RMK AO2 SLP167 T02330067

More Conditions Fewer Conditions

10-Day Weather Forecast

Almanac

Astronomy

Jul. 31, 2014 Rise Set
Actual Time 6:18 AM MDT 8:37 PM MDT
Civil Twilight 5:47 AM MDT 9:08 PM MDT
Nautical Twilight 5:09 AM MDT 9:45 PM MDT
Astronomical Twilight 4:28 AM MDT 10:27 PM MDT
Moon 10:50 AM MDT 10:51 PM MDT
Length of Visible Light 15h 20m
Length of Day
14h 19m
Tomorrow will be 2m 1s shorter.
Waxing Crescent, 19% of the Moon is Illuminated
Today
Waxing Crescent
Aug 3
First Quarter
Aug 10
Full
Aug 17
Last Quarter
Aug 25
New

Today's Extremes

State Highs State Lows

Community

WunderPhotos

Upload Photos

1,739,367 photos uploaded!

WunderBlogs® & News

By Dr. Jeff Masters
Director of Meteorology, Weather Underground
By Kari Strenfel
Meteorologist, Weather Underground
By Christopher C. Burt
Weather Historian, Weather Underground
July 31, 2014
July 31, 2014
July 31, 2014

Nearby

Snow Depth

Station Depth Elevation
Rock Creek 1 in 7900 ft
Five Points Lake 0 in 10920 ft
Trial Lake 2 in 9960 ft
Currant Creek 0 in 8000 ft
Chepeta 0 in 10300 ft

Earthquake Activity

City Distance Mag. Time & Date
No recent earthquake activity has been reported nearby.
Minimum magnitude displayed is 2.5.

Coastal Water Temperatures

Place Temperature
No Stations Reporting

Nearby Weather Stations

Station Location Temp. Dew Point Humidity Wind Precip. Elev Updated Type
MesoWest MOUNTAIN HOME , Bluebell, UT - - 71% East  at  3 mph 0.00 in / hr 6950 ft 9:00 AM MDT MADIS
HADS MOON LAKE NEAR ALTONAH 20NW UT, Altonah, UT - - 83% NW  at  5 mph 0.00 in / hr 8149 ft 9:00 AM MDT MADIS
MesoWest LITTLE RED FOX , Talmage, UT - - 77% WSW  at  1 mph 0.00 in / hr 5396 ft 9:00 AM MDT MADIS

Show More Stations Show Fewer Stations